Time;durP1;ratioP1;P1;durP2;ratioP2;P2;SDS_P1;SDS_P2;PMS_P1;PMS_P2;Temp;Humidity;BMP_temperature;BMP_pressure;BME280_temperature;BME280_humidity;BME280_pressure;Samples;Min_cycle;Max_cycle;Signal;HPM_P1;HPM_P2
2021/04/17 00:01:53;;;;;;;8.07;7.47;;;18.10;28.80;;;;;;5031104;28;20516;-72
2021/04/17 00:04:20;;;;;;;6.37;6.07;;;18.10;28.80;;;;;;5031045;28;20435;-72
2021/04/17 00:06:46;;;;;;;7.80;7.20;;;18.00;28.70;;;;;;5030381;28;20925;-72
2021/04/17 00:09:15;;;;;;;7.27;6.77;;;18.00;28.70;;;;;;5030632;28;20420;-72
2021/04/17 00:11:42;;;;;;;6.57;6.07;;;18.00;28.70;;;;;;5030704;28;20462;-72
2021/04/17 00:14:13;;;;;;;7.43;6.83;;;18.00;28.80;;;;;;5030272;28;20400;-72
2021/04/17 00:16:39;;;;;;;7.30;6.70;;;18.00;28.70;;;;;;5030013;28;20925;-72
2021/04/17 00:19:05;;;;;;;7.77;7.17;;;18.00;28.70;;;;;;5030837;28;20409;-72
2021/04/17 00:21:31;;;;;;;8.23;7.53;;;18.00;28.70;;;;;;5030422;28;20172;-72
2021/04/17 00:23:57;;;;;;;6.87;6.47;;;18.00;28.70;;;;;;5030606;28;20415;-72
2021/04/17 00:26:23;;;;;;;6.80;6.30;;;18.00;28.70;;;;;;5030234;28;20466;-72
2021/04/17 00:28:49;;;;;;;7.37;6.83;;;18.00;28.70;;;;;;5030392;28;20454;-72
2021/04/17 00:31:14;;;;;;;7.40;6.90;;;18.00;28.70;;;;;;5030418;28;20294;-72
2021/04/17 00:33:40;;;;;;;7.87;7.27;;;18.00;28.70;;;;;;5030585;28;20173;-72
2021/04/17 00:36:06;;;;;;;7.80;7.20;;;18.00;28.80;;;;;;5030079;28;20206;-72
2021/04/17 00:38:31;;;;;;;6.97;6.47;;;18.00;28.80;;;;;;5031018;28;20157;-72
2021/04/17 00:40:59;;;;;;;7.10;6.60;;;17.90;28.70;;;;;;5031909;28;20295;-72
2021/04/17 00:43:25;;;;;;;7.13;6.60;;;17.90;28.70;;;;;;5030847;28;20587;-72
2021/04/17 00:45:51;;;;;;;7.27;6.77;;;17.90;28.70;;;;;;5030312;28;20968;-72
2021/04/17 00:48:16;;;;;;;6.57;6.17;;;17.90;28.80;;;;;;5030371;28;20411;-72
2021/04/17 00:50:42;;;;;;;7.27;6.67;;;17.90;28.80;;;;;;5029699;28;20192;-72
2021/04/17 00:53:08;;;;;;;6.93;6.40;;;17.90;28.80;;;;;;5033515;28;20204;-72
2021/04/17 00:55:34;;;;;;;6.97;6.33;;;17.90;28.80;;;;;;5031057;28;20535;-72
2021/04/17 00:58:02;;;;;;;7.67;7.17;;;17.90;28.80;;;;;;5029784;28;20430;-72
2021/04/17 01:00:28;;;;;;;6.83;6.37;;;17.90;28.80;;;;;;5036164;28;20420;-72
2021/04/17 01:03:03;;;;;;;6.00;5.70;;;17.90;28.80;;;;;;5031327;28;20783;-72
2021/04/17 01:05:31;;;;;;;6.60;6.20;;;17.90;28.80;;;;;;5035416;28;20197;-72
2021/04/17 01:07:59;;;;;;;6.87;6.37;;;17.90;28.80;;;;;;5030659;28;20546;-72
2021/04/17 01:10:45;;;;;;;6.40;5.90;;;17.90;28.90;;;;;;5030668;28;20466;-72
2021/04/17 01:13:10;;;;;;;6.87;6.40;;;17.90;28.90;;;;;;5028627;28;20420;-72
2021/04/17 01:15:38;;;;;;;7.07;6.57;;;17.90;28.80;;;;;;5028113;28;20454;-72
2021/04/17 01:18:05;;;;;;;6.70;6.20;;;17.90;28.90;;;;;;5021981;28;20411;-72
2021/04/17 01:20:46;;;;;;;6.73;6.20;;;17.90;28.80;;;;;;5029788;28;20481;-72
2021/04/17 01:23:12;;;;;;;5.87;5.50;;;17.90;28.80;;;;;;5029852;28;20415;-72
2021/04/17 01:26:00;;;;;;;6.23;5.80;;;17.90;28.90;;;;;;5035002;28;20905;-72
2021/04/17 01:28:28;;;;;;;6.60;6.20;;;17.90;28.90;;;;;;5041185;28;20207;-72
2021/04/17 01:30:55;;;;;;;6.07;5.67;;;17.80;28.80;;;;;;5033713;28;20466;-72
2021/04/17 01:33:25;;;;;;;6.03;5.73;;;17.80;28.80;;;;;;5033998;28;20407;-72
2021/04/17 01:35:52;;;;;;;6.27;5.87;;;17.80;28.80;;;;;;5033382;28;20519;-72
2021/04/17 01:38:33;;;;;;;5.90;5.50;;;17.80;28.90;;;;;;5033854;28;20407;-72
2021/04/17 01:41:22;;;;;;;6.40;5.90;;;17.80;28.80;;;;;;5033827;28;20422;-72
2021/04/17 01:43:51;;;;;;;5.80;5.37;;;17.80;28.80;;;;;;5033496;28;20411;-72
2021/04/17 01:46:22;;;;;;;5.90;5.50;;;17.80;28.80;;;;;;5033408;28;21108;-72
2021/04/17 01:48:52;;;;;;;6.37;5.97;;;17.80;28.90;;;;;;5033600;28;20411;-72
2021/04/17 01:51:19;;;;;;;6.20;5.90;;;17.80;28.90;;;;;;5033451;28;20463;-72
2021/04/17 01:53:45;;;;;;;6.50;6.10;;;17.80;28.90;;;;;;5033586;28;20456;-72
2021/04/17 01:56:13;;;;;;;6.30;5.90;;;17.80;28.90;;;;;;5033386;28;20505;-72
2021/04/17 01:58:41;;;;;;;6.20;5.90;;;17.80;28.90;;;;;;5033616;28;20782;-72
2021/04/17 02:01:07;;;;;;;5.60;5.30;;;17.80;28.90;;;;;;5033463;28;20411;-72
2021/04/17 02:03:33;;;;;;;5.83;5.43;;;17.80;28.90;;;;;;5033253;28;20935;-72
2021/04/17 02:05:59;;;;;;;5.77;5.47;;;17.80;28.90;;;;;;5032682;28;20439;-72
2021/04/17 02:08:24;;;;;;;6.27;5.87;;;17.80;28.90;;;;;;5033310;28;20437;-72
2021/04/17 02:10:51;;;;;;;6.20;5.80;;;17.80;28.80;;;;;;5032973;28;20705;-72
2021/04/17 02:13:18;;;;;;;6.40;6.00;;;17.80;28.90;;;;;;5032994;28;20627;-72
2021/04/17 02:15:44;;;;;;;6.10;5.70;;;17.80;28.90;;;;;;5032909;28;20426;-72
2021/04/17 02:18:27;;;;;;;6.90;6.40;;;17.80;28.90;;;;;;5033102;28;20422;-72
2021/04/17 02:21:15;;;;;;;5.60;5.20;;;17.80;28.90;;;;;;5032994;28;20411;-72
2021/04/17 02:23:41;;;;;;;5.87;5.57;;;17.80;28.90;;;;;;5033249;28;20434;-72
2021/04/17 02:26:07;;;;;;;5.80;5.40;;;17.80;28.90;;;;;;5032924;28;20435;-72
2021/04/17 02:28:32;;;;;;;6.23;5.80;;;17.70;28.80;;;;;;5032633;28;20830;-72
2021/04/17 02:31:02;;;;;;;5.60;5.30;;;17.70;28.90;;;;;;5032949;28;20212;-72
2021/04/17 02:33:27;;;;;;;6.23;5.73;;;17.70;28.80;;;;;;5032831;28;20597;-72
2021/04/17 02:35:53;;;;;;;5.80;5.40;;;17.80;28.90;;;;;;5032238;28;20510;-72
2021/04/17 02:38:18;;;;;;;5.83;5.43;;;17.70;28.80;;;;;;5031981;28;20663;-72
2021/04/17 02:40:44;;;;;;;5.50;5.20;;;17.70;28.80;;;;;;5032674;28;20807;-72
2021/04/17 02:43:09;;;;;;;5.67;5.37;;;17.70;28.80;;;;;;5032321;28;20188;-72
2021/04/17 02:45:35;;;;;;;5.77;5.37;;;17.80;28.90;;;;;;5032245;28;20907;-72
2021/04/17 02:48:01;;;;;;;6.50;6.00;;;17.70;28.90;;;;;;5032546;28;20210;-72
2021/04/17 02:50:27;;;;;;;6.43;6.00;;;17.70;28.90;;;;;;5032164;28;20299;-72
2021/04/17 02:52:53;;;;;;;5.30;5.00;;;17.70;28.90;;;;;;5032347;28;20415;-72
2021/04/17 02:55:19;;;;;;;5.40;5.10;;;17.70;28.90;;;;;;5032281;28;20180;-72
2021/04/17 02:57:46;;;;;;;5.80;5.50;;;17.70;28.90;;;;;;5031905;28;20527;-72
2021/04/17 03:00:14;;;;;;;5.90;5.60;;;17.70;28.80;;;;;;5032377;28;20415;-72
2021/04/17 03:02:40;;;;;;;5.63;5.23;;;17.70;28.80;;;;;;5031073;28;20935;-72
2021/04/17 03:05:07;;;;;;;5.73;5.43;;;17.70;28.80;;;;;;5030466;28;20424;-72
2021/04/17 03:07:33;;;;;;;4.80;4.60;;;17.70;28.90;;;;;;5032471;28;20651;-72
2021/04/17 03:09:58;;;;;;;5.87;5.57;;;17.70;28.80;;;;;;5032065;28;20477;-72
2021/04/17 03:12:24;;;;;;;5.83;5.43;;;17.70;28.90;;;;;;5031735;28;20547;-72
2021/04/17 03:14:50;;;;;;;5.50;5.17;;;17.70;28.90;;;;;;5032069;28;20180;-72
2021/04/17 03:17:15;;;;;;;5.27;4.97;;;17.70;28.90;;;;;;5031616;28;20220;-72
2021/04/17 03:19:42;;;;;;;5.20;4.83;;;17.70;28.90;;;;;;5031696;28;20610;-72
2021/04/17 03:22:07;;;;;;;5.40;5.10;;;17.60;29.30;;;;;;5031857;28;20591;-72
2021/04/17 03:24:34;;;;;;;5.00;4.70;;;17.70;28.80;;;;;;5031967;28;20436;-72
2021/04/17 03:27:00;;;;;;;6.67;6.27;;;17.70;28.90;;;;;;5031183;28;20189;-72
2021/04/17 03:29:26;;;;;;;5.30;4.97;;;17.70;28.90;;;;;;5030308;28;20435;-72
2021/04/17 03:31:51;;;;;;;4.60;4.30;;;17.70;28.90;;;;;;5030554;28;20457;-72
2021/04/17 03:34:17;;;;;;;5.80;5.50;;;17.70;28.90;;;;;;5031365;28;20188;-73
2021/04/17 03:36:42;;;;;;;5.50;5.20;;;17.60;28.80;;;;;;5031329;28;20192;-72
2021/04/17 03:39:08;;;;;;;5.30;5.00;;;17.70;28.90;;;;;;5031687;28;20235;-72
2021/04/17 03:41:34;;;;;;;4.53;4.33;;;17.70;29.00;;;;;;5031245;28;20177;-72
2021/04/17 03:44:00;;;;;;;5.43;5.13;;;17.80;28.90;;;;;;5031457;28;20184;-72
2021/04/17 03:46:25;;;;;;;4.63;4.40;;;17.90;28.50;;;;;;5031338;28;20550;-72
2021/04/17 03:48:51;;;;;;;5.20;4.90;;;18.10;28.70;;;;;;5030915;28;20185;-72
2021/04/17 03:51:16;;;;;;;4.90;4.60;;;18.30;28.60;;;;;;5030577;28;20321;-72
2021/04/17 03:53:42;;;;;;;5.80;5.40;;;18.50;28.40;;;;;;5031350;28;20544;-73
2021/04/17 03:56:07;;;;;;;4.73;4.53;;;18.60;28.00;;;;;;5032882;28;20207;-72
2021/04/17 03:58:33;;;;;;;4.90;4.60;;;18.70;27.80;;;;;;5033105;28;20598;-72
2021/04/17 04:00:59;;;;;;;5.30;5.00;;;18.80;27.70;;;;;;5043337;28;20651;-72
2021/04/17 04:03:24;;;;;;;4.80;4.50;;;18.90;27.70;;;;;;5038691;28;20195;-72
2021/04/17 04:05:51;;;;;;;4.67;4.40;;;19.00;27.70;;;;;;5035964;28;20208;-72
2021/04/17 04:08:16;;;;;;;5.20;4.90;;;19.00;27.50;;;;;;5037189;28;20243;-72
2021/04/17 04:10:42;;;;;;;4.40;4.20;;;19.10;27.50;;;;;;5029059;28;20868;-72
2021/04/17 04:13:07;;;;;;;4.73;4.43;;;19.10;27.40;;;;;;5029690;28;20184;-72
2021/04/17 04:15:33;;;;;;;4.53;4.27;;;19.10;27.30;;;;;;5030590;28;20176;-72
2021/04/17 04:17:58;;;;;;;5.23;4.90;;;19.20;27.40;;;;;;5030601;28;20661;-72
2021/04/17 04:20:24;;;;;;;5.20;4.80;;;19.20;27.30;;;;;;5030923;28;20180;-72
2021/04/17 04:22:49;;;;;;;4.37;4.17;;;19.20;27.30;;;;;;5030781;28;20180;-72
2021/04/17 04:25:15;;;;;;;4.97;4.77;;;19.10;27.30;;;;;;5030207;28;20173;-72
2021/04/17 04:27:41;;;;;;;4.60;4.30;;;19.10;27.30;;;;;;5030719;28;20243;-72
2021/04/17 04:30:09;;;;;;;5.00;4.60;;;19.20;27.40;;;;;;5030612;28;20219;-72
2021/04/17 04:32:35;;;;;;;4.70;4.40;;;19.10;27.30;;;;;;5030445;28;20647;-72
2021/04/17 04:35:01;;;;;;;4.20;4.00;;;19.10;27.30;;;;;;5030440;28;20468;-72
2021/04/17 04:37:26;;;;;;;4.97;4.67;;;19.10;27.30;;;;;;5030323;28;20424;-72
2021/04/17 04:39:52;;;;;;;4.63;4.33;;;19.10;27.40;;;;;;5030238;28;20591;-72
2021/04/17 04:42:17;;;;;;;6.07;5.57;;;19.10;27.50;;;;;;5030310;28;20264;-72
2021/04/17 04:44:43;;;;;;;5.03;4.63;;;19.20;28.60;;;;;;5031263;28;20183;-71
2021/04/17 04:47:08;;;;;;;8.70;6.07;;;19.20;28.50;;;;;;5031358;28;20201;-71
2021/04/17 04:49:34;;;;;;;5.20;4.87;;;19.20;28.90;;;;;;5032497;28;20177;-71
2021/04/17 04:52:00;;;;;;;5.70;5.20;;;19.20;28.80;;;;;;5031901;28;20173;-71
2021/04/17 04:54:25;;;;;;;6.03;5.43;;;19.20;28.70;;;;;;5031622;28;20184;-71
2021/04/17 04:56:51;;;;;;;5.77;5.27;;;19.30;28.70;;;;;;5041385;28;20247;-71
2021/04/17 04:59:16;;;;;;;8.53;5.13;;;19.30;28.70;;;;;;5030463;28;20172;-71
2021/04/17 05:01:42;;;;;;;5.10;4.77;;;19.30;28.70;;;;;;5034900;28;20260;-71
2021/04/17 05:04:08;;;;;;;5.90;5.50;;;19.30;28.70;;;;;;5030023;28;20211;-71
2021/04/17 05:06:33;;;;;;;5.10;4.70;;;19.20;28.60;;;;;;5035336;28;20200;-71
2021/04/17 05:08:59;;;;;;;6.13;5.73;;;19.20;28.60;;;;;;5031984;28;20654;-71
2021/04/17 05:11:26;;;;;;;5.30;5.00;;;19.20;28.60;;;;;;5034755;28;20224;-71
2021/04/17 05:13:52;;;;;;;5.33;4.97;;;19.20;28.60;;;;;;5038758;28;20494;-71
2021/04/17 05:16:18;;;;;;;5.37;4.97;;;19.20;28.70;;;;;;5031341;28;20208;-70
2021/04/17 05:18:44;;;;;;;6.73;5.43;;;19.20;28.70;;;;;;5035908;28;20422;-70
2021/04/17 05:21:09;;;;;;;5.70;5.30;;;19.20;28.60;;;;;;5029880;28;20187;-71
2021/04/17 05:23:35;;;;;;;10.07;5.27;;;19.20;28.90;;;;;;5030162;28;20755;-70
2021/04/17 05:26:00;;;;;;;5.13;4.83;;;19.10;28.80;;;;;;5029412;28;20789;-71
2021/04/17 05:28:26;;;;;;;5.57;4.97;;;19.10;28.90;;;;;;5029913;28;20172;-71
2021/04/17 05:30:52;;;;;;;5.00;4.70;;;19.20;29.00;;;;;;5029680;28;20210;-71
2021/04/17 05:33:18;;;;;;;5.60;5.20;;;19.10;28.90;;;;;;5029492;28;20420;-71
2021/04/17 05:35:43;;;;;;;5.13;4.73;;;19.10;28.90;;;;;;5029599;28;20223;-71
2021/04/17 05:38:09;;;;;;;6.97;4.83;;;19.10;29.00;;;;;;5028222;28;20176;-71
2021/04/17 05:40:34;;;;;;;4.90;4.60;;;19.20;29.10;;;;;;5029651;28;20189;-71
2021/04/17 05:43:00;;;;;;;4.53;4.30;;;19.10;29.30;;;;;;5028515;28;20181;-71
2021/04/17 05:45:26;;;;;;;5.23;4.80;;;19.10;29.30;;;;;;5029439;28;20242;-71
2021/04/17 05:47:51;;;;;;;5.40;5.00;;;19.10;29.40;;;;;;5029362;28;20226;-70
2021/04/17 05:50:17;;;;;;;4.93;4.63;;;19.10;29.40;;;;;;5029670;28;20201;-71
2021/04/17 05:52:42;;;;;;;5.23;4.83;;;19.10;29.40;;;;;;5029542;28;20172;-70
2021/04/17 05:55:09;;;;;;;4.27;4.07;;;19.10;29.40;;;;;;5035159;28;20173;-70
2021/04/17 05:57:35;;;;;;;5.60;5.10;;;19.10;29.40;;;;;;5032668;28;20205;-70
2021/04/17 06:00:01;;;;;;;5.47;5.17;;;19.10;29.40;;;;;;5029416;28;20476;-70
2021/04/17 06:02:26;;;;;;;4.80;4.50;;;19.10;29.30;;;;;;5029230;28;20207;-70
2021/04/17 06:04:52;;;;;;;6.07;4.70;;;19.10;29.30;;;;;;5029468;28;20197;-70
2021/04/17 06:07:17;;;;;;;4.53;4.23;;;19.10;29.00;;;;;;5029061;28;20196;-70
2021/04/17 06:09:43;;;;;;;5.43;4.93;;;19.10;29.00;;;;;;5029032;28;20200;-71
2021/04/17 06:12:09;;;;;;;8.50;4.20;;;19.20;29.00;;;;;;5029409;28;20169;-70
2021/04/17 06:14:34;;;;;;;7.40;4.37;;;19.20;29.10;;;;;;5032435;28;20226;-70
2021/04/17 06:17:00;;;;;;;4.50;4.20;;;19.20;29.10;;;;;;5032618;28;20439;-71
2021/04/17 06:19:25;;;;;;;5.03;4.63;;;19.20;29.00;;;;;;5033338;28;20246;-71
2021/04/17 06:21:51;;;;;;;4.20;3.80;;;19.20;29.00;;;;;;5040848;28;20604;-70
2021/04/17 06:24:16;;;;;;;6.97;4.93;;;19.20;29.00;;;;;;5041370;28;20673;-72
2021/04/17 06:26:42;;;;;;;4.37;4.00;;;19.20;29.10;;;;;;5041394;28;20201;-71
2021/04/17 06:29:08;;;;;;;5.20;4.80;;;19.10;29.00;;;;;;5036927;28;20177;-71
2021/04/17 06:31:33;;;;;;;4.80;4.40;;;19.20;29.10;;;;;;5035635;28;20469;-71
2021/04/17 06:33:59;;;;;;;6.00;4.77;;;19.20;29.10;;;;;;5032600;28;20175;-71
2021/04/17 06:36:25;;;;;;;4.60;4.20;;;19.10;28.90;;;;;;5031567;28;20284;-71
2021/04/17 06:38:50;;;;;;;6.97;4.77;;;19.10;28.90;;;;;;5031068;28;20189;-71
2021/04/17 06:41:19;;;;;;;5.30;4.90;;;19.20;28.90;;;;;;5031282;28;20179;-71
2021/04/17 06:43:45;;;;;;;4.63;4.23;;;19.20;28.90;;;;;;5032606;28;20173;-71
2021/04/17 06:46:13;;;;;;;7.13;4.37;;;19.20;28.80;;;;;;5034509;28;20486;-71
2021/04/17 06:48:39;;;;;;;11.67;4.90;;;19.20;28.90;;;;;;5036746;28;20769;-71
2021/04/17 06:51:15;;;;;;;5.60;4.53;;;19.30;28.80;;;;;;5040015;28;20458;-72
2021/04/17 06:53:41;;;;;;;6.97;4.67;;;19.30;28.80;;;;;;5038182;28;20423;-71
2021/04/17 06:56:08;;;;;;;6.10;4.67;;;19.30;28.80;;;;;;5034770;28;20435;-71
2021/04/17 06:58:33;;;;;;;5.33;4.83;;;19.30;28.80;;;;;;5032034;28;20501;-72
2021/04/17 07:00:59;;;;;;;5.17;4.60;;;19.30;28.70;;;;;;5033032;28;20972;-73
2021/04/17 07:03:25;;;;;;;5.10;4.60;;;19.30;28.70;;;;;;5036786;28;20724;-72
2021/04/17 07:05:51;;;;;;;7.20;5.03;;;19.40;28.80;;;;;;5036731;28;20447;-72
2021/04/17 07:08:17;;;;;;;5.87;4.60;;;19.40;28.90;;;;;;5030569;28;20658;-72
2021/04/17 07:10:43;;;;;;;8.80;6.20;;;19.40;29.00;;;;;;5036448;28;20200;-72
2021/04/17 07:13:11;;;;;;;6.03;4.70;;;19.30;28.00;;;;;;5046072;28;20904;-72
2021/04/17 07:15:38;;;;;;;7.63;5.40;;;19.20;28.20;;;;;;5034811;28;20279;-72
2021/04/17 07:18:34;;;;;;;7.70;7.10;;;19.10;27.70;;;;;;5012031;28;20404;-71
2021/04/17 07:21:20;;;;;;;6.37;5.87;;;19.10;26.20;;;;;;5023278;28;20428;-72
2021/04/17 07:23:47;;;;;;;6.70;6.10;;;19.00;27.50;;;;;;5031315;28;20850;-72
2021/04/17 07:26:22;;;;;;;6.60;6.00;;;18.90;26.70;;;;;;5031307;28;20442;-73
2021/04/17 07:29:00;;;;;;;6.70;6.20;;;18.90;26.70;;;;;;5031608;28;20417;-72
2021/04/17 07:31:28;;;;;;;6.57;5.97;;;18.90;27.50;;;;;;5031202;28;20971;-73
2021/04/17 07:33:55;;;;;;;5.70;5.30;;;18.80;27.00;;;;;;5031672;28;20399;-72
2021/04/17 07:36:22;;;;;;;5.07;4.70;;;18.80;27.10;;;;;;5031216;28;20481;-73
2021/04/17 07:38:48;;;;;;;8.70;5.50;;;18.80;27.20;;;;;;5031175;28;20424;-72
2021/04/17 07:41:15;;;;;;;5.20;4.80;;;18.80;27.30;;;;;;5031280;28;20407;-72
2021/04/17 07:43:48;;;;;;;5.23;4.77;;;18.70;27.40;;;;;;5031430;28;20173;-76
2021/04/17 07:46:21;;;;;;;4.53;4.23;;;18.70;27.50;;;;;;5030877;28;20500;-74
2021/04/17 07:48:47;;;;;;;5.53;5.13;;;18.70;27.60;;;;;;5020351;28;20412;-72
2021/04/17 07:51:13;;;;;;;5.30;5.00;;;18.70;27.70;;;;;;5011413;28;20456;-72
2021/04/17 07:53:41;;;;;;;4.73;4.33;;;18.60;27.80;;;;;;5033837;28;20478;-73
2021/04/17 07:56:33;;;;;;;5.10;4.60;;;18.60;27.90;;;;;;5035891;28;20201;-73
2021/04/17 07:59:02;;;;;;;4.33;4.13;;;18.60;28.00;;;;;;5031113;28;21133;-72
2021/04/17 08:01:30;;;;;;;4.97;4.60;;;18.60;27.90;;;;;;5030757;28;20446;-73
2021/04/17 08:03:57;;;;;;;4.13;3.93;;;18.60;28.00;;;;;;5029892;28;20585;-72
2021/04/17 08:06:24;;;;;;;4.87;4.37;;;18.60;28.10;;;;;;5031013;28;20518;-73
2021/04/17 08:08:51;;;;;;;4.57;4.37;;;18.60;28.10;;;;;;5030813;28;20404;-73
2021/04/17 08:11:20;;;;;;;4.20;3.90;;;18.60;28.10;;;;;;5031003;28;20832;-73
2021/04/17 08:13:48;;;;;;;4.33;4.03;;;18.60;28.10;;;;;;5031596;28;20498;-74
2021/04/17 08:16:13;;;;;;;4.33;3.93;;;18.70;28.20;;;;;;5040355;28;20437;-72
2021/04/17 08:18:39;;;;;;;4.50;4.20;;;18.70;28.20;;;;;;5030165;28;20416;-72
2021/04/17 08:21:10;;;;;;;4.40;4.00;;;18.80;28.10;;;;;;5037026;28;20196;-73
2021/04/17 08:23:37;;;;;;;4.77;4.47;;;18.70;28.00;;;;;;5030532;28;20992;-72
2021/04/17 08:26:04;;;;;;;3.77;3.57;;;18.80;28.00;;;;;;5030538;28;20943;-72
2021/04/17 08:28:30;;;;;;;3.77;3.57;;;18.80;28.00;;;;;;5036085;28;20467;-72
2021/04/17 08:31:31;;;;;;;4.27;3.97;;;18.80;28.00;;;;;;5030921;28;20455;-72
2021/04/17 08:34:16;;;;;;;4.40;4.10;;;18.80;27.90;;;;;;5029408;28;20685;-72
2021/04/17 08:36:46;;;;;;;4.00;3.80;;;18.90;27.90;;;;;;5034507;28;20439;-72
2021/04/17 08:39:33;;;;;;;4.20;3.90;;;18.90;28.00;;;;;;5037385;28;20412;-72
2021/04/17 08:42:04;;;;;;;4.33;4.10;;;18.90;27.90;;;;;;5032259;28;20435;-71
2021/04/17 08:44:41;;;;;;;3.97;3.77;;;18.90;28.00;;;;;;5037609;28;20451;-72
2021/04/17 08:47:09;;;;;;;5.13;3.93;;;18.90;27.90;;;;;;5026572;28;20470;-72
2021/04/17 08:49:37;;;;;;;4.27;3.80;;;18.90;28.00;;;;;;5032046;28;20422;-72
2021/04/17 08:52:09;;;;;;;3.70;3.50;;;18.90;28.00;;;;;;5024098;28;20434;-71
2021/04/17 08:54:38;;;;;;;4.10;3.80;;;18.90;28.00;;;;;;5032223;28;20928;-71
2021/04/17 08:57:13;;;;;;;4.10;3.70;;;18.90;28.10;;;;;;5011563;28;20427;-71
2021/04/17 08:59:40;;;;;;;3.90;3.70;;;18.80;28.00;;;;;;5031895;28;20411;-72
2021/04/17 09:02:14;;;;;;;4.43;4.03;;;18.80;28.00;;;;;;5031778;28;21123;-71
2021/04/17 09:05:05;;;;;;;4.30;4.10;;;18.80;28.10;;;;;;5033714;28;20406;-72
2021/04/17 09:07:33;;;;;;;4.17;3.87;;;18.80;28.20;;;;;;5033880;28;20427;-71
2021/04/17 09:10:26;;;;;;;3.83;3.53;;;18.70;28.20;;;;;;5029897;28;20463;-72
2021/04/17 09:13:10;;;;;;;3.73;3.53;;;18.70;28.30;;;;;;5032517;28;20421;-72
2021/04/17 09:16:01;;;;;;;3.40;3.23;;;18.70;28.40;;;;;;5033645;28;20399;-71
2021/04/17 09:18:36;;;;;;;3.77;3.57;;;18.60;28.30;;;;;;5025725;28;20419;-72
2021/04/17 09:21:04;;;;;;;4.37;4.07;;;18.60;28.40;;;;;;5034611;28;20779;-72
2021/04/17 09:23:39;;;;;;;3.77;3.57;;;18.60;28.40;;;;;;5029907;28;20412;-72
2021/04/17 09:26:07;;;;;;;3.80;3.50;;;18.60;28.50;;;;;;5033830;28;20445;-72
2021/04/17 09:28:37;;;;;;;3.77;3.57;;;18.60;28.50;;;;;;5022887;28;20407;-72
2021/04/17 09:31:03;;;;;;;3.70;3.50;;;18.60;28.50;;;;;;5018867;28;20459;-72
2021/04/17 09:33:29;;;;;;;4.27;4.00;;;18.60;28.60;;;;;;5027074;28;20418;-73
2021/04/17 09:35:55;;;;;;;4.83;3.63;;;18.60;28.60;;;;;;5023136;28;20948;-71
2021/04/17 09:38:23;;;;;;;3.83;3.63;;;18.50;28.50;;;;;;5020954;28;20184;-72
2021/04/17 09:40:53;;;;;;;3.70;3.50;;;18.50;28.50;;;;;;5012547;28;20933;-73
2021/04/17 09:43:29;;;;;;;3.30;3.13;;;18.50;28.50;;;;;;5009711;28;20574;-73
2021/04/17 09:46:03;;;;;;;3.23;3.13;;;18.50;28.70;;;;;;5009817;28;20558;-73
2021/04/17 09:48:41;;;;;;;4.83;3.50;;;18.50;28.80;;;;;;5013069;28;20926;-72
2021/04/17 09:51:18;;;;;;;4.33;4.03;;;18.50;29.00;;;;;;5013324;28;20546;-72
2021/04/17 09:53:44;;;;;;;4.30;3.90;;;18.60;29.00;;;;;;5038534;28;20426;-72
2021/04/17 09:56:13;;;;;;;4.33;4.03;;;18.80;29.10;;;;;;5039608;28;20937;-72
2021/04/17 09:58:44;;;;;;;6.30;5.10;;;18.80;29.10;;;;;;5037044;28;20177;-72
2021/04/17 10:01:17;;;;;;;4.23;3.83;;;18.90;29.20;;;;;;5045073;28;20423;-72
2021/04/17 10:03:49;;;;;;;6.20;3.90;;;19.00;29.30;;;;;;5055018;28;20432;-74
2021/04/17 10:06:25;;;;;;;6.50;4.17;;;19.00;29.30;;;;;;5031384;28;20439;-72
2021/04/17 10:08:51;;;;;;;6.03;4.17;;;18.90;29.40;;;;;;5032981;28;20504;-72
2021/04/17 10:11:28;;;;;;;6.07;4.30;;;18.80;29.50;;;;;;5032923;28;20458;-73
2021/04/17 10:13:54;;;;;;;5.07;4.17;;;18.80;29.20;;;;;;5033068;28;20490;-72
2021/04/17 10:16:25;;;;;;;4.10;3.67;;;18.90;29.70;;;;;;5032887;28;20953;-72
2021/04/17 10:18:51;;;;;;;5.67;4.50;;;18.90;29.30;;;;;;5036745;28;20432;-72
2021/04/17 10:21:22;;;;;;;6.33;4.53;;;18.90;29.30;;;;;;5042976;28;20418;-71
2021/04/17 10:24:15;;;;;;;4.23;3.80;;;18.90;29.30;;;;;;5033936;28;20419;-72
2021/04/17 10:27:05;;;;;;;3.90;3.63;;;19.00;29.30;;;;;;5031787;28;20775;-72
2021/04/17 10:29:46;;;;;;;3.80;3.50;;;19.00;29.20;;;;;;5031631;28;20411;-72
2021/04/17 10:32:21;;;;;;;3.50;3.30;;;19.00;28.90;;;;;;5033095;28;20854;-72
2021/04/17 10:34:53;;;;;;;4.87;3.90;;;19.10;28.80;;;;;;5033073;28;20414;-72
2021/04/17 10:37:24;;;;;;;4.53;4.17;;;19.10;28.80;;;;;;5033690;28;20423;-72
2021/04/17 10:40:00;;;;;;;5.80;4.20;;;19.10;28.70;;;;;;5032901;28;20408;-73
2021/04/17 10:42:40;;;;;;;5.53;3.63;;;19.10;28.80;;;;;;5032043;28;20422;-72
2021/04/17 10:45:06;;;;;;;3.67;3.40;;;19.10;28.80;;;;;;5032392;28;20814;-72
2021/04/17 10:47:32;;;;;;;4.03;3.73;;;19.20;29.30;;;;;;5032442;28;20419;-74
2021/04/17 10:49:57;;;;;;;9.73;4.57;;;19.30;29.00;;;;;;5035882;28;20419;-72
2021/04/17 10:52:32;;;;;;;4.17;3.77;;;19.30;29.10;;;;;;5032801;28;20257;-72
2021/04/17 10:54:58;;;;;;;4.60;4.13;;;19.30;29.00;;;;;;5030784;28;20179;-72
2021/04/17 10:57:24;;;;;;;4.53;4.20;;;19.30;29.00;;;;;;5031848;28;20432;-72
2021/04/17 10:59:57;;;;;;;4.43;4.13;;;19.40;29.10;;;;;;5031539;28;20200;-72
2021/04/17 11:02:32;;;;;;;5.40;3.90;;;19.40;29.00;;;;;;5032248;28;20404;-72
2021/04/17 11:04:59;;;;;;;4.37;4.07;;;19.40;29.20;;;;;;5031754;28;20513;-72
2021/04/17 11:07:30;;;;;;;4.47;4.00;;;19.40;29.20;;;;;;5032165;28;20435;-72
2021/04/17 11:09:56;;;;;;;4.33;3.93;;;19.40;29.10;;;;;;5032211;28;20971;-72
2021/04/17 11:12:30;;;;;;;3.90;3.60;;;19.30;29.00;;;;;;5031635;28;20403;-72
2021/04/17 11:15:33;;;;;;;5.53;3.90;;;19.40;29.10;;;;;;5031979;28;20180;-72
2021/04/17 11:18:16;;;;;;;4.13;3.73;;;19.40;29.00;;;;;;5031799;28;20958;-72
2021/04/17 11:20:46;;;;;;;4.43;4.13;;;19.40;28.90;;;;;;5030277;28;20443;-72
2021/04/17 11:23:34;;;;;;;3.67;3.47;;;19.40;29.00;;;;;;5031804;28;20412;-72
2021/04/17 11:26:05;;;;;;;3.50;3.30;;;19.40;29.00;;;;;;5031468;28;20805;-72
2021/04/17 11:28:30;;;;;;;4.57;4.23;;;19.40;29.10;;;;;;5029755;28;20424;-72
2021/04/17 11:30:56;;;;;;;4.97;4.47;;;19.30;28.70;;;;;;5036901;28;20504;-71
2021/04/17 11:33:23;;;;;;;5.73;4.80;;;19.20;25.20;;;;;;5034477;28;20173;-71
2021/04/17 11:35:49;;;;;;;7.33;4.93;;;18.60;22.90;;;;;;5031207;28;20212;-71
2021/04/17 11:38:14;;;;;;;5.43;4.90;;;18.30;21.30;;;;;;5036281;28;20443;-71
2021/04/17 11:40:40;;;;;;;4.70;4.40;;;18.30;23.20;;;;;;5029966;28;20435;-71
2021/04/17 11:43:06;;;;;;;4.17;3.90;;;18.40;23.60;;;;;;5031228;28;20189;-71
2021/04/17 11:45:31;;;;;;;15.60;5.60;;;18.40;24.40;;;;;;5031120;28;20203;-71
2021/04/17 11:47:57;;;;;;;4.13;3.83;;;18.50;23.80;;;;;;5038347;28;20197;-71
2021/04/17 11:50:22;;;;;;;4.40;4.20;;;18.60;24.20;;;;;;5031082;28;20204;-71
2021/04/17 11:52:48;;;;;;;3.83;3.63;;;18.60;24.00;;;;;;5031298;28;20169;-71
2021/04/17 11:55:14;;;;;;;3.97;3.77;;;18.50;23.80;;;;;;5030967;28;20181;-71
2021/04/17 11:57:39;;;;;;;3.70;3.50;;;18.50;23.40;;;;;;5031369;28;20809;-71
2021/04/17 12:00:06;;;;;;;4.50;4.20;;;18.50;23.40;;;;;;5025476;28;20185;-71
2021/04/17 12:02:32;;;;;;;4.40;4.00;;;18.50;23.50;;;;;;5011578;28;20648;-71
2021/04/17 12:04:58;;;;;;;4.47;4.07;;;18.50;22.80;;;;;;5010109;28;20409;-72
2021/04/17 12:07:23;;;;;;;3.77;3.50;;;18.50;23.00;;;;;;5014252;28;20682;-71
2021/04/17 12:09:51;;;;;;;4.20;4.00;;;18.40;22.50;;;;;;5019217;28;20435;-71
2021/04/17 12:12:17;;;;;;;4.37;3.90;;;18.40;23.20;;;;;;5020386;28;20166;-71
2021/04/17 12:14:42;;;;;;;3.87;3.67;;;18.50;23.30;;;;;;5019537;28;20409;-71
2021/04/17 12:17:08;;;;;;;3.87;3.57;;;18.60;22.70;;;;;;5013013;28;20695;-72
2021/04/17 12:19:33;;;;;;;3.83;3.53;;;18.70;22.70;;;;;;5010959;28;20227;-72
2021/04/17 12:21:59;;;;;;;3.50;3.30;;;18.70;23.00;;;;;;5011110;28;20205;-72
2021/04/17 12:24:25;;;;;;;3.33;3.13;;;18.80;23.10;;;;;;5010830;28;20235;-72
2021/04/17 12:26:51;;;;;;;3.73;3.53;;;18.80;23.50;;;;;;5023930;28;20291;-74
2021/04/17 12:29:17;;;;;;;6.73;4.17;;;18.90;23.70;;;;;;5043249;28;20714;-72
2021/04/17 12:31:43;;;;;;;3.20;3.07;;;18.90;24.00;;;;;;5032950;28;20467;-72
2021/04/17 12:34:09;;;;;;;3.30;3.00;;;19.00;24.10;;;;;;5030382;28;20868;-75
2021/04/17 12:36:35;;;;;;;3.30;3.10;;;19.10;24.30;;;;;;5030141;28;20493;-72
2021/04/17 12:39:00;;;;;;;3.50;3.40;;;19.10;24.40;;;;;;5030406;28;20169;-72
2021/04/17 12:41:26;;;;;;;3.20;3.07;;;19.10;24.40;;;;;;5034938;28;20188;-72
2021/04/17 12:43:52;;;;;;;3.50;3.30;;;19.20;24.40;;;;;;5032138;28;20177;-72
2021/04/17 12:46:17;;;;;;;5.00;3.10;;;19.20;24.50;;;;;;5030258;28;20569;-72
2021/04/17 12:48:43;;;;;;;3.30;3.10;;;19.20;24.60;;;;;;5031008;28;20203;-71
2021/04/17 12:51:09;;;;;;;3.10;3.00;;;19.20;24.60;;;;;;5031565;28;20246;-72
2021/04/17 12:53:34;;;;;;;3.63;3.37;;;19.20;24.50;;;;;;5031559;28;20165;-73